createdAt,value
2017-03-17T00:00:20.353Z,929.38
2017-03-17T00:00:48.583Z,929.4
2017-03-17T00:01:16.828Z,929.38
2017-03-17T00:01:45.128Z,929.39
2017-03-17T00:02:13.405Z,929.41
2017-03-17T00:02:41.706Z,929.4
2017-03-17T00:03:10.063Z,929.38
2017-03-17T00:03:38.293Z,929.4
2017-03-17T00:04:06.566Z,929.41
2017-03-17T00:04:34.782Z,929.44
2017-03-17T00:05:02.870Z,929.45
2017-03-17T00:05:31.156Z,929.44
2017-03-17T00:05:59.136Z,929.45
2017-03-17T00:06:27.470Z,929.48
2017-03-17T00:06:55.623Z,929.47
2017-03-17T00:07:23.623Z,929.49
2017-03-17T00:08:11.119Z,929.49
2017-03-17T00:08:39.340Z,929.47
2017-03-17T00:09:07.476Z,929.48
2017-03-17T00:09:35.556Z,929.5
2017-03-17T00:10:03.716Z,929.49
2017-03-17T00:10:31.847Z,929.5
2017-03-17T00:10:59.818Z,929.55
2017-03-17T00:11:28.032Z,929.54
2017-03-17T00:11:56.147Z,929.51
2017-03-17T00:12:24.243Z,929.53
2017-03-17T00:12:52.464Z,929.52
2017-03-17T00:13:20.756Z,929.51
2017-03-17T00:13:49.020Z,929.54
2017-03-17T00:14:17.102Z,929.5
2017-03-17T00:14:45.228Z,929.51
2017-03-17T00:15:13.257Z,929.49
2017-03-17T00:15:41.529Z,929.51
2017-03-17T00:16:09.447Z,929.5
2017-03-17T00:16:37.640Z,929.51
2017-03-17T00:17:05.905Z,929.52
2017-03-17T00:17:34.214Z,929.53
2017-03-17T00:18:02.330Z,929.51
2017-03-17T00:18:30.608Z,929.53
2017-03-17T00:18:58.626Z,929.54
2017-03-17T00:19:26.781Z,929.52
2017-03-17T00:19:55.010Z,929.54
2017-03-17T00:20:23.071Z,929.55
2017-03-17T00:20:51.274Z,929.58
2017-03-17T00:21:19.528Z,929.58
2017-03-17T00:21:47.705Z,929.57
2017-03-17T00:22:15.828Z,929.6
2017-03-17T00:22:43.982Z,929.6
2017-03-17T00:23:12.024Z,929.59
2017-03-17T00:23:40.289Z,929.63
2017-03-17T00:24:08.535Z,929.63
2017-03-17T00:24:36.739Z,929.64
2017-03-17T00:25:04.928Z,929.64
2017-03-17T00:25:33.082Z,929.6
2017-03-17T00:26:01.285Z,929.62
2017-03-17T00:26:29.401Z,929.64
2017-03-17T00:26:57.535Z,929.61
2017-03-17T00:27:25.663Z,929.64
2017-03-17T00:27:53.760Z,929.64
2017-03-17T00:28:21.956Z,929.61
2017-03-17T00:28:50.175Z,929.64
2017-03-17T00:29:18.221Z,929.62
2017-03-17T00:29:46.187Z,929.64
2017-03-17T00:30:14.265Z,929.64
2017-03-17T00:30:42.326Z,929.62
2017-03-17T00:31:10.388Z,929.63
2017-03-17T00:31:38.485Z,929.63
2017-03-17T00:32:06.611Z,929.64
2017-03-17T00:32:34.557Z,929.67
2017-03-17T00:33:02.673Z,929.66
2017-03-17T00:33:30.803Z,929.7
2017-03-17T00:33:58.943Z,929.68
2017-03-17T00:34:27.144Z,929.66
2017-03-17T00:34:55.283Z,929.67
2017-03-17T00:35:23.306Z,929.67
2017-03-17T00:35:51.442Z,929.69
2017-03-17T00:36:19.465Z,929.69
2017-03-17T00:36:47.594Z,929.68
2017-03-17T00:37:15.601Z,929.67
2017-03-17T00:37:43.808Z,929.66
2017-03-17T00:38:11.817Z,929.65
2017-03-17T00:38:39.984Z,929.69
2017-03-17T00:39:08.010Z,929.67
2017-03-17T00:39:36.201Z,929.66
2017-03-17T00:40:04.329Z,929.69
2017-03-17T00:40:32.463Z,929.71
2017-03-17T00:41:00.678Z,929.66
2017-03-17T00:41:28.820Z,929.68
2017-03-17T00:41:56.964Z,929.7
2017-03-17T00:42:25.170Z,929.72
2017-03-17T00:42:53.287Z,929.67
2017-03-17T00:43:21.492Z,929.71
2017-03-17T00:43:49.542Z,929.74
2017-03-17T00:44:17.502Z,929.71
2017-03-17T00:44:45.443Z,929.74
2017-03-17T00:45:13.672Z,929.69
2017-03-17T00:45:41.728Z,929.72
2017-03-17T00:46:09.960Z,929.71
2017-03-17T00:46:38.031Z,929.72
2017-03-17T00:47:06.080Z,929.71
2017-03-17T00:47:34.328Z,929.74
2017-03-17T00:48:02.547Z,929.72
2017-03-17T00:48:30.689Z,929.71
2017-03-17T00:48:58.920Z,929.73
2017-03-17T00:49:27.116Z,929.74
2017-03-17T00:49:55.235Z,929.72
2017-03-17T00:50:23.372Z,929.73
2017-03-17T00:50:51.422Z,929.74
2017-03-17T00:51:19.643Z,929.73
2017-03-17T00:51:47.720Z,929.75
2017-03-17T00:52:15.868Z,929.77
2017-03-17T00:52:43.919Z,929.77
2017-03-17T00:53:11.813Z,929.78
2017-03-17T00:53:40.138Z,929.76
2017-03-17T00:54:08.374Z,929.77
2017-03-17T00:54:36.540Z,929.79
2017-03-17T00:55:04.768Z,929.78
2017-03-17T00:55:32.969Z,929.81
2017-03-17T00:56:01.053Z,929.81
2017-03-17T00:56:29.229Z,929.8
2017-03-17T00:56:57.421Z,929.86
2017-03-17T00:57:25.652Z,929.84
2017-03-17T00:57:53.696Z,929.81
2017-03-17T00:58:21.909Z,929.8
2017-03-17T00:58:50.200Z,929.82
2017-03-17T00:59:18.291Z,929.81
2017-03-17T00:59:46.534Z,929.83
2017-03-17T01:00:14.674Z,929.84
2017-03-17T01:00:42.783Z,929.83
2017-03-17T01:01:10.864Z,929.8
2017-03-17T01:01:38.783Z,929.8
2017-03-17T01:02:07.066Z,929.79
2017-03-17T01:02:35.232Z,929.81
2017-03-17T01:03:03.333Z,929.79
2017-03-17T01:03:31.463Z,929.76
2017-03-17T01:03:59.705Z,929.74
2017-03-17T01:04:27.812Z,929.78
2017-03-17T01:04:55.854Z,929.75
2017-03-17T01:05:23.994Z,929.77
2017-03-17T01:05:51.996Z,929.75
2017-03-17T01:06:19.918Z,929.76
2017-03-17T01:06:48.077Z,929.75
2017-03-17T01:07:16.152Z,929.75
2017-03-17T01:07:44.412Z,929.74
2017-03-17T01:08:12.383Z,929.75
2017-03-17T01:08:40.617Z,929.73
2017-03-17T01:09:08.960Z,929.75
2017-03-17T01:09:36.955Z,929.74
2017-03-17T01:10:05.168Z,929.74
2017-03-17T01:10:33.370Z,929.71
2017-03-17T01:11:01.405Z,929.73
2017-03-17T01:11:29.519Z,929.72
2017-03-17T01:11:57.417Z,929.73
2017-03-17T01:12:25.623Z,929.71
2017-03-17T01:12:53.673Z,929.71
2017-03-17T01:13:21.914Z,929.72
2017-03-17T01:13:50.062Z,929.71
2017-03-17T01:14:18.393Z,929.71
2017-03-17T01:14:46.611Z,929.74
2017-03-17T01:15:14.735Z,929.75
2017-03-17T01:15:42.673Z,929.73
2017-03-17T01:16:10.798Z,929.72
2017-03-17T01:16:39.004Z,929.75
2017-03-17T01:17:07.186Z,929.73
2017-03-17T01:17:35.159Z,929.76
2017-03-17T01:18:03.298Z,929.77
2017-03-17T01:18:31.474Z,929.77
2017-03-17T01:18:59.885Z,929.76
2017-03-17T01:19:28.113Z,929.77
2017-03-17T01:19:56.356Z,929.77
2017-03-17T01:20:24.488Z,929.73
2017-03-17T01:20:52.598Z,929.76
2017-03-17T01:21:20.814Z,929.74
2017-03-17T01:21:48.910Z,929.73
2017-03-17T01:22:17.120Z,929.71
2017-03-17T01:22:45.209Z,929.75
2017-03-17T01:23:13.371Z,929.71
2017-03-17T01:23:41.527Z,929.72
2017-03-17T01:24:09.766Z,929.71
2017-03-17T01:24:37.919Z,929.71
2017-03-17T01:25:05.985Z,929.72
2017-03-17T01:25:34.210Z,929.76
2017-03-17T01:26:02.282Z,929.69
2017-03-17T01:26:30.506Z,929.72
2017-03-17T01:26:58.770Z,929.75
2017-03-17T01:27:26.927Z,929.77
2017-03-17T01:27:54.902Z,929.72
2017-03-17T01:28:23.029Z,929.73
2017-03-17T01:28:51.271Z,929.73
2017-03-17T01:29:19.357Z,929.72
2017-03-17T01:29:47.607Z,929.73
2017-03-17T01:30:15.654Z,929.73
2017-03-17T01:30:43.799Z,929.71
2017-03-17T01:31:12.026Z,929.74
2017-03-17T01:31:39.955Z,929.72
2017-03-17T01:32:08.219Z,929.75
2017-03-17T01:32:36.181Z,929.74
2017-03-17T01:33:04.202Z,929.73
2017-03-17T01:33:32.432Z,929.75
2017-03-17T01:34:00.544Z,929.78
2017-03-17T01:34:28.772Z,929.75
2017-03-17T01:34:56.719Z,929.77
2017-03-17T01:35:24.771Z,929.75
2017-03-17T01:35:52.956Z,929.78
2017-03-17T01:36:20.985Z,929.78
2017-03-17T01:36:49.201Z,929.78
2017-03-17T01:37:17.249Z,929.79
2017-03-17T01:37:45.229Z,929.81
2017-03-17T01:38:13.357Z,929.79
2017-03-17T01:38:41.322Z,929.79
2017-03-17T01:39:09.595Z,929.78
2017-03-17T01:39:37.799Z,929.82
2017-03-17T01:40:05.945Z,929.83
2017-03-17T01:40:34.138Z,929.83
2017-03-17T01:41:02.354Z,929.78
2017-03-17T01:41:30.519Z,929.82
2017-03-17T01:41:58.556Z,929.76
2017-03-17T01:42:26.779Z,929.78
2017-03-17T01:42:54.822Z,929.75
2017-03-17T01:43:23.042Z,929.81
2017-03-17T01:43:51.115Z,929.76
2017-03-17T01:44:19.160Z,929.78
2017-03-17T01:44:47.249Z,929.78
2017-03-17T01:45:15.525Z,929.74
2017-03-17T01:45:43.748Z,929.78
2017-03-17T01:46:11.729Z,929.76
2017-03-17T01:46:39.776Z,929.76
2017-03-17T01:47:07.912Z,929.74
2017-03-17T01:47:36.042Z,929.73
2017-03-17T01:48:04.255Z,929.74
2017-03-17T01:48:32.421Z,929.73
2017-03-17T01:49:00.517Z,929.72
2017-03-17T01:49:28.845Z,929.71
2017-03-17T01:49:56.968Z,929.71
2017-03-17T01:50:25.115Z,929.72
2017-03-17T01:50:53.325Z,929.71
2017-03-17T01:51:21.517Z,929.7
2017-03-17T01:51:49.739Z,929.69
2017-03-17T01:52:18.000Z,929.67
2017-03-17T01:52:46.117Z,929.67
2017-03-17T01:53:14.350Z,929.65
2017-03-17T01:53:42.482Z,929.66
2017-03-17T01:54:10.684Z,929.6
2017-03-17T01:54:38.953Z,929.64
2017-03-17T01:55:07.076Z,929.61
2017-03-17T01:55:35.232Z,929.64
2017-03-17T01:56:03.289Z,929.61
2017-03-17T01:56:31.555Z,929.6
2017-03-17T01:56:59.803Z,929.63
2017-03-17T01:57:28.095Z,929.59
2017-03-17T01:57:56.103Z,929.6
2017-03-17T01:58:24.393Z,929.6
2017-03-17T01:58:53.365Z,929.6
2017-03-17T01:59:21.637Z,929.62
2017-03-17T01:59:49.719Z,929.63
2017-03-17T02:00:17.695Z,929.62
2017-03-17T02:00:45.795Z,929.62
2017-03-17T02:01:13.937Z,929.65
2017-03-17T02:01:42.086Z,929.61
2017-03-17T02:02:10.263Z,929.59
2017-03-17T02:02:38.340Z,929.63
2017-03-17T02:03:06.500Z,929.65
2017-03-17T02:03:34.676Z,929.66
2017-03-17T02:04:02.809Z,929.65
2017-03-17T02:04:31.108Z,929.65
2017-03-17T02:04:59.146Z,929.64
2017-03-17T02:05:27.389Z,929.65
2017-03-17T02:05:55.658Z,929.62
2017-03-17T02:06:23.797Z,929.65
2017-03-17T02:06:52.026Z,929.65
2017-03-17T02:07:20.037Z,929.62
2017-03-17T02:07:48.045Z,929.66
2017-03-17T02:08:16.225Z,929.62
2017-03-17T02:08:44.400Z,929.66
2017-03-17T02:09:12.661Z,929.65
2017-03-17T02:09:40.936Z,929.65
2017-03-17T02:10:09.061Z,929.64
2017-03-17T02:10:37.004Z,929.64
2017-03-17T02:11:05.156Z,929.64
2017-03-17T02:11:33.329Z,929.65
2017-03-17T02:12:01.398Z,929.66
2017-03-17T02:12:29.527Z,929.65
2017-03-17T02:12:57.738Z,929.67
2017-03-17T02:13:25.805Z,929.68
2017-03-17T02:13:53.957Z,929.67
2017-03-17T02:14:22.202Z,929.65
2017-03-17T02:14:50.614Z,929.66
2017-03-17T02:15:18.884Z,929.69
2017-03-17T02:15:47.132Z,929.65
2017-03-17T02:16:15.341Z,929.66
2017-03-17T02:16:43.511Z,929.63
2017-03-17T02:17:11.682Z,929.62
2017-03-17T02:17:39.737Z,929.63
2017-03-17T02:18:07.888Z,929.62
2017-03-17T02:18:36.077Z,929.6
2017-03-17T02:19:04.175Z,929.6
2017-03-17T02:19:32.452Z,929.58
2017-03-17T02:20:00.967Z,929.6
2017-03-17T02:20:29.112Z,929.58
2017-03-17T02:20:57.376Z,929.57
2017-03-17T02:21:25.414Z,929.59
2017-03-17T02:21:53.562Z,929.61
2017-03-17T02:22:21.723Z,929.6
2017-03-17T02:22:49.710Z,929.6
2017-03-17T02:23:17.914Z,929.62
2017-03-17T02:23:45.917Z,929.6
2017-03-17T02:24:14.114Z,929.63
2017-03-17T02:24:42.451Z,929.64
2017-03-17T02:25:10.496Z,929.61
2017-03-17T02:25:38.675Z,929.64
2017-03-17T02:26:38.800Z,929.61
2017-03-17T02:27:07.052Z,929.61
2017-03-17T02:27:35.099Z,929.59
2017-03-17T02:28:03.163Z,929.61
2017-03-17T02:28:31.439Z,929.58
2017-03-17T02:28:59.464Z,929.57
2017-03-17T02:29:27.711Z,929.55
2017-03-17T02:29:56.023Z,929.52
2017-03-17T02:30:24.109Z,929.53
2017-03-17T02:30:52.397Z,929.54
2017-03-17T02:31:20.671Z,929.49
2017-03-17T02:31:48.822Z,929.51
2017-03-17T02:32:17.085Z,929.54
2017-03-17T02:32:45.200Z,929.51
2017-03-17T02:33:13.341Z,929.5
2017-03-17T02:33:41.374Z,929.47
2017-03-17T02:34:09.331Z,929.48
2017-03-17T02:34:37.451Z,929.49
2017-03-17T02:35:05.798Z,929.49
2017-03-17T02:35:33.835Z,929.48
2017-03-17T02:36:01.970Z,929.5
2017-03-17T02:36:30.670Z,929.5
2017-03-17T02:36:58.829Z,929.52
2017-03-17T02:37:46.234Z,929.49
2017-03-17T02:38:14.484Z,929.49
2017-03-17T02:38:42.657Z,929.46
2017-03-17T02:39:10.703Z,929.51
2017-03-17T02:39:38.785Z,929.49
2017-03-17T02:40:07.153Z,929.49
2017-03-17T02:40:35.396Z,929.5
2017-03-17T02:41:03.652Z,929.49
2017-03-17T02:41:31.764Z,929.45
2017-03-17T02:42:00.021Z,929.48
2017-03-17T02:42:28.205Z,929.48
2017-03-17T02:42:56.428Z,929.47
2017-03-17T02:43:27.598Z,929.45
2017-03-17T02:43:55.792Z,929.44
2017-03-17T02:44:23.868Z,929.44
2017-03-17T02:44:52.307Z,929.43
2017-03-17T02:45:21.112Z,929.44
2017-03-17T02:45:49.346Z,929.42
2017-03-17T02:46:17.481Z,929.39
2017-03-17T02:46:45.707Z,929.41
2017-03-17T02:47:13.849Z,929.42
2017-03-17T02:47:42.059Z,929.4
2017-03-17T02:48:10.045Z,929.4
2017-03-17T02:48:38.299Z,929.43
2017-03-17T02:49:06.435Z,929.43
2017-03-17T02:49:34.653Z,929.42
2017-03-17T02:50:02.844Z,929.43
2017-03-17T02:50:30.980Z,929.44
2017-03-17T02:50:59.010Z,929.42
2017-03-17T02:51:27.173Z,929.45
2017-03-17T02:51:55.300Z,929.44
2017-03-17T02:52:23.347Z,929.43
2017-03-17T02:52:51.378Z,929.42
2017-03-17T02:53:19.486Z,929.44
2017-03-17T02:53:47.519Z,929.39
2017-03-17T02:54:15.734Z,929.43
2017-03-17T02:54:43.834Z,929.43
2017-03-17T02:55:11.932Z,929.43
2017-03-17T02:55:39.869Z,929.43
2017-03-17T02:56:07.967Z,929.46
2017-03-17T02:56:36.159Z,929.46
2017-03-17T02:57:04.080Z,929.42
2017-03-17T02:57:32.143Z,929.42
2017-03-17T02:58:00.414Z,929.43
2017-03-17T02:58:28.528Z,929.43
2017-03-17T02:58:56.768Z,929.44
2017-03-17T02:59:24.781Z,929.44
2017-03-17T02:59:52.877Z,929.46
2017-03-17T03:00:21.085Z,929.45
2017-03-17T03:00:49.187Z,929.47
2017-03-17T03:01:17.310Z,929.48
2017-03-17T03:01:45.395Z,929.46
2017-03-17T03:02:13.560Z,929.45
2017-03-17T03:02:41.729Z,929.46
2017-03-17T03:03:09.962Z,929.46
2017-03-17T03:03:38.138Z,929.45
2017-03-17T03:04:06.320Z,929.47
2017-03-17T03:04:34.496Z,929.45
2017-03-17T03:05:02.634Z,929.43
2017-03-17T03:05:30.657Z,929.44
2017-03-17T03:05:58.737Z,929.45
2017-03-17T03:06:27.031Z,929.44
2017-03-17T03:06:55.144Z,929.44
2017-03-17T03:07:23.080Z,929.46
2017-03-17T03:07:51.318Z,929.5
2017-03-17T03:08:19.545Z,929.48
2017-03-17T03:08:47.748Z,929.43
2017-03-17T03:09:15.772Z,929.46
2017-03-17T03:09:43.991Z,929.45
2017-03-17T03:10:12.319Z,929.44
2017-03-17T03:10:40.523Z,929.46
2017-03-17T03:11:08.661Z,929.45
2017-03-17T03:11:36.822Z,929.45
2017-03-17T03:12:05.051Z,929.4
2017-03-17T03:12:33.056Z,929.43
2017-03-17T03:13:01.111Z,929.42
2017-03-17T03:13:29.321Z,929.39
2017-03-17T03:13:57.523Z,929.38
2017-03-17T03:14:25.674Z,929.36
2017-03-17T03:14:53.634Z,929.36
2017-03-17T03:15:21.781Z,929.35
2017-03-17T03:15:49.931Z,929.38
2017-03-17T03:16:17.958Z,929.35
2017-03-17T03:16:46.060Z,929.35
2017-03-17T03:17:14.178Z,929.29
2017-03-17T03:17:42.197Z,929.36
2017-03-17T03:18:10.372Z,929.32
2017-03-17T03:18:38.486Z,929.32
2017-03-17T03:19:06.632Z,929.31
2017-03-17T03:19:34.827Z,929.31
2017-03-17T03:20:02.946Z,929.3
2017-03-17T03:20:31.047Z,929.29
2017-03-17T03:20:59.006Z,929.31
2017-03-17T03:21:27.139Z,929.29
2017-03-17T03:21:54.935Z,929.28
2017-03-17T03:22:23.150Z,929.28
2017-03-17T03:22:51.373Z,929.26
2017-03-17T03:23:19.498Z,929.26
2017-03-17T03:23:47.638Z,929.25
2017-03-17T03:24:15.604Z,929.22
2017-03-17T03:24:43.847Z,929.24
2017-03-17T03:25:11.908Z,929.2
2017-03-17T03:25:39.844Z,929.2
2017-03-17T03:26:07.820Z,929.2
2017-03-17T03:26:35.943Z,929.2
2017-03-17T03:27:03.919Z,929.2
2017-03-17T03:27:31.996Z,929.22
2017-03-17T03:28:00.129Z,929.21
2017-03-17T03:28:28.080Z,929.21
2017-03-17T03:28:56.146Z,929.19
2017-03-17T03:29:24.339Z,929.25
2017-03-17T03:29:52.501Z,929.22
2017-03-17T03:30:20.739Z,929.21
2017-03-17T03:30:48.773Z,929.25
2017-03-17T03:31:16.884Z,929.24
2017-03-17T03:31:45.001Z,929.21
2017-03-17T03:32:13.217Z,929.21
2017-03-17T03:32:41.350Z,929.19
2017-03-17T03:33:09.510Z,929.19
2017-03-17T03:33:37.745Z,929.19
2017-03-17T03:34:05.913Z,929.19
2017-03-17T03:34:34.172Z,929.2
2017-03-17T03:35:02.316Z,929.16
2017-03-17T03:35:30.463Z,929.16
2017-03-17T03:35:58.768Z,929.16
2017-03-17T03:36:26.701Z,929.18
2017-03-17T03:36:54.830Z,929.17
2017-03-17T03:37:22.957Z,929.16
2017-03-17T03:37:51.164Z,929.13
2017-03-17T03:38:19.415Z,929.15
2017-03-17T03:38:47.540Z,929.14
2017-03-17T03:39:15.621Z,929.13
2017-03-17T03:39:43.857Z,929.13
2017-03-17T03:40:12.067Z,929.14
2017-03-17T03:40:40.445Z,929.16
2017-03-17T03:41:08.712Z,929.15
2017-03-17T03:41:36.894Z,929.16
2017-03-17T03:42:05.003Z,929.15
2017-03-17T03:42:33.177Z,929.15
2017-03-17T03:43:01.323Z,929.14
2017-03-17T03:43:29.445Z,929.19
2017-03-17T03:43:57.561Z,929.13
2017-03-17T03:44:25.769Z,929.12
2017-03-17T03:44:53.858Z,929.13
2017-03-17T03:45:21.896Z,929.14
2017-03-17T03:45:50.100Z,929.14
2017-03-17T03:46:18.379Z,929.13
2017-03-17T03:46:46.562Z,929.1
2017-03-17T03:47:14.645Z,929.1
2017-03-17T03:47:42.747Z,929.1
2017-03-17T03:48:11.024Z,929.1
2017-03-17T03:48:39.059Z,929.12
2017-03-17T03:49:07.285Z,929.08
2017-03-17T03:49:35.315Z,929.08
2017-03-17T03:50:03.418Z,929.1
2017-03-17T03:50:31.628Z,929.09
2017-03-17T03:50:59.863Z,929.09
2017-03-17T03:51:27.990Z,929.03
2017-03-17T03:51:56.208Z,929.04
2017-03-17T03:52:24.275Z,929.07
2017-03-17T03:52:52.425Z,929.06
2017-03-17T03:53:20.488Z,929.03
2017-03-17T03:53:48.522Z,929.01
2017-03-17T03:54:16.655Z,928.97
2017-03-17T03:54:44.767Z,929
2017-03-17T03:55:12.935Z,928.96
2017-03-17T03:55:41.093Z,928.99
2017-03-17T03:56:09.260Z,929.02
2017-03-17T03:56:37.508Z,929
2017-03-17T03:57:05.639Z,929
2017-03-17T03:57:33.842Z,928.98
2017-03-17T03:58:02.056Z,928.96
2017-03-17T03:58:30.211Z,929
2017-03-17T03:58:58.435Z,928.98
2017-03-17T03:59:26.489Z,928.97
2017-03-17T03:59:54.575Z,928.99
2017-03-17T04:00:22.723Z,928.98
2017-03-17T04:00:50.865Z,928.99
2017-03-17T04:01:19.051Z,928.99
2017-03-17T04:01:47.318Z,928.99
2017-03-17T04:02:15.422Z,928.98
2017-03-17T04:02:43.492Z,929
2017-03-17T04:03:11.716Z,928.94
2017-03-17T04:03:39.909Z,928.95
2017-03-17T04:04:07.990Z,928.95
2017-03-17T04:04:36.105Z,928.94
2017-03-17T04:05:04.290Z,928.95
2017-03-17T04:05:32.333Z,928.92
2017-03-17T04:06:00.589Z,928.92
2017-03-17T04:06:28.728Z,928.95
2017-03-17T04:06:56.902Z,928.96
2017-03-17T04:07:24.943Z,928.94
2017-03-17T04:07:53.121Z,928.92
2017-03-17T04:08:21.243Z,928.9
2017-03-17T04:08:49.309Z,928.91
2017-03-17T04:09:17.415Z,928.9
2017-03-17T04:09:45.651Z,928.88
2017-03-17T04:10:13.722Z,928.88
2017-03-17T04:10:41.930Z,928.89
2017-03-17T04:11:10.133Z,928.87
2017-03-17T04:11:38.255Z,928.87
2017-03-17T04:12:06.342Z,928.87
2017-03-17T04:12:34.593Z,928.85
2017-03-17T04:13:02.832Z,928.86
2017-03-17T04:13:31.024Z,928.86
2017-03-17T04:13:59.039Z,928.84
2017-03-17T04:14:27.081Z,928.85
2017-03-17T04:14:55.253Z,928.85
2017-03-17T04:15:23.368Z,928.83
2017-03-17T04:15:51.769Z,928.86
2017-03-17T04:16:19.988Z,928.82
2017-03-17T04:16:48.231Z,928.85
2017-03-17T04:17:16.503Z,928.85
2017-03-17T04:17:44.768Z,928.84
2017-03-17T04:18:12.909Z,928.84
2017-03-17T04:18:41.176Z,928.81
2017-03-17T04:19:09.445Z,928.8
2017-03-17T04:19:37.690Z,928.84
2017-03-17T04:20:06.061Z,928.81
2017-03-17T04:20:34.217Z,928.84
2017-03-17T04:21:02.570Z,928.8
2017-03-17T04:21:30.749Z,928.8
2017-03-17T04:21:58.909Z,928.83
2017-03-17T04:22:27.069Z,928.8
2017-03-17T04:22:55.198Z,928.81
2017-03-17T04:23:23.111Z,928.77
2017-03-17T04:23:51.229Z,928.76
2017-03-17T04:24:19.477Z,928.75
2017-03-17T04:24:47.597Z,928.77
2017-03-17T04:25:15.650Z,928.75
2017-03-17T04:25:43.922Z,928.77
2017-03-17T04:26:12.252Z,928.71
2017-03-17T04:26:40.270Z,928.73
2017-03-17T04:27:08.400Z,928.7
2017-03-17T04:27:36.519Z,928.66
2017-03-17T04:28:04.734Z,928.68
2017-03-17T04:28:32.930Z,928.66
2017-03-17T04:29:01.202Z,928.65
2017-03-17T04:29:29.410Z,928.63
2017-03-17T04:29:57.469Z,928.62
2017-03-17T04:30:25.662Z,928.58
2017-03-17T04:30:53.902Z,928.58
2017-03-17T04:31:22.093Z,928.57
2017-03-17T04:31:50.117Z,928.52
2017-03-17T04:32:18.318Z,928.5
2017-03-17T04:32:46.524Z,928.5
2017-03-17T04:33:14.567Z,928.42
2017-03-17T04:33:42.595Z,928.47
2017-03-17T04:34:10.843Z,928.43
2017-03-17T04:34:39.098Z,928.41
2017-03-17T04:35:07.140Z,928.37
2017-03-17T04:35:35.272Z,928.36
2017-03-17T04:36:03.516Z,928.38
2017-03-17T04:36:31.686Z,928.36
2017-03-17T04:36:59.838Z,928.38
2017-03-17T04:37:27.893Z,928.35
2017-03-17T04:37:56.065Z,928.36
2017-03-17T04:38:24.271Z,928.36
2017-03-17T04:38:52.400Z,928.36
2017-03-17T04:39:20.467Z,928.34
2017-03-17T04:39:48.620Z,928.36
2017-03-17T04:40:16.840Z,928.35
2017-03-17T04:40:45.005Z,928.33
2017-03-17T04:41:13.508Z,928.34
2017-03-17T04:41:41.626Z,928.34
2017-03-17T04:42:09.902Z,928.31
2017-03-17T04:42:37.972Z,928.33
2017-03-17T04:43:06.113Z,928.32
2017-03-17T04:43:34.335Z,928.36
2017-03-17T04:44:02.481Z,928.33
2017-03-17T04:44:30.532Z,928.3
2017-03-17T04:44:58.660Z,928.35
2017-03-17T04:45:26.739Z,928.34
2017-03-17T04:45:54.780Z,928.34
2017-03-17T04:46:22.942Z,928.33
2017-03-17T04:46:51.111Z,928.33
2017-03-17T04:47:19.303Z,928.32
2017-03-17T04:47:47.500Z,928.33
2017-03-17T04:48:15.618Z,928.36
2017-03-17T04:48:43.657Z,928.34
2017-03-17T04:49:11.797Z,928.37
2017-03-17T04:49:40.049Z,928.38
2017-03-17T04:50:08.159Z,928.4
2017-03-17T04:50:36.267Z,928.41
2017-03-17T04:51:04.406Z,928.36
2017-03-17T04:51:32.635Z,928.39
2017-03-17T04:52:00.820Z,928.37
2017-03-17T04:52:29.098Z,928.36
2017-03-17T04:52:56.927Z,928.36
2017-03-17T04:53:24.992Z,928.38
2017-03-17T04:53:53.021Z,928.37
2017-03-17T04:54:21.145Z,928.35
2017-03-17T04:54:49.261Z,928.35
2017-03-17T04:55:17.502Z,928.33
2017-03-17T04:55:45.737Z,928.34
2017-03-17T04:56:13.923Z,928.34
2017-03-17T04:56:42.232Z,928.34
2017-03-17T04:57:10.416Z,928.34
2017-03-17T04:57:38.579Z,928.31
2017-03-17T04:58:06.684Z,928.32
2017-03-17T04:58:34.805Z,928.34
2017-03-17T04:59:02.730Z,928.37
2017-03-17T04:59:30.822Z,928.38
2017-03-17T04:59:58.946Z,928.35
2017-03-17T05:00:27.124Z,928.37
2017-03-17T05:00:55.131Z,928.4
2017-03-17T05:01:23.380Z,928.4
2017-03-17T05:01:51.542Z,928.39
2017-03-17T05:02:19.681Z,928.39
2017-03-17T05:02:47.800Z,928.44
2017-03-17T05:03:16.016Z,928.4
2017-03-17T05:03:44.115Z,928.38
2017-03-17T05:04:12.232Z,928.39
2017-03-17T05:04:40.414Z,928.38
2017-03-17T05:05:08.574Z,928.37
2017-03-17T05:05:36.638Z,928.37
2017-03-17T05:06:04.838Z,928.36
2017-03-17T05:06:32.876Z,928.37
2017-03-17T05:07:00.958Z,928.34
2017-03-17T05:07:29.001Z,928.34
2017-03-17T05:07:57.048Z,928.32
2017-03-17T05:08:25.168Z,928.31
2017-03-17T05:08:53.076Z,928.32
2017-03-17T05:09:21.019Z,928.28
2017-03-17T05:09:49.039Z,928.34
2017-03-17T05:10:17.187Z,928.29
2017-03-17T05:10:45.128Z,928.28
2017-03-17T05:11:13.146Z,928.27
2017-03-17T05:11:41.287Z,928.34
2017-03-17T05:12:09.482Z,928.32
2017-03-17T05:12:37.496Z,928.29
2017-03-17T05:13:05.722Z,928.28
2017-03-17T05:13:33.580Z,928.27
2017-03-17T05:14:01.573Z,928.27
2017-03-17T05:14:29.763Z,928.27
2017-03-17T05:14:57.922Z,928.23
2017-03-17T05:15:26.111Z,928.24
2017-03-17T05:15:54.246Z,928.22
2017-03-17T05:16:22.506Z,928.21
2017-03-17T05:16:50.877Z,928.21
2017-03-17T05:17:18.855Z,928.22
2017-03-17T05:17:46.980Z,928.23
2017-03-17T05:18:15.190Z,928.22
2017-03-17T05:18:43.357Z,928.2
2017-03-17T05:19:11.528Z,928.21
2017-03-17T05:19:39.566Z,928.19
2017-03-17T05:20:07.719Z,928.19
2017-03-17T05:20:35.874Z,928.21
2017-03-17T05:21:04.136Z,928.18
2017-03-17T05:21:32.440Z,928.18
2017-03-17T05:22:00.327Z,928.19
2017-03-17T05:22:28.369Z,928.24
2017-03-17T05:22:56.599Z,928.24
2017-03-17T05:23:24.837Z,928.23
2017-03-17T05:23:52.972Z,928.25
2017-03-17T05:24:21.001Z,928.21
2017-03-17T05:24:49.259Z,928.25
2017-03-17T05:25:17.409Z,928.22
2017-03-17T05:25:45.462Z,928.24
2017-03-17T05:26:13.753Z,928.23
2017-03-17T05:26:42.052Z,928.23
2017-03-17T05:27:10.194Z,928.22
2017-03-17T05:27:38.412Z,928.25
2017-03-17T05:28:06.591Z,928.22
2017-03-17T05:28:34.871Z,928.2
2017-03-17T05:29:03.007Z,928.18
2017-03-17T05:29:31.258Z,928.17
2017-03-17T05:29:59.379Z,928.14
2017-03-17T05:30:27.443Z,928.14
2017-03-17T05:30:55.652Z,928.14
2017-03-17T05:31:23.724Z,928.12
2017-03-17T05:31:51.848Z,928.15
2017-03-17T05:32:19.763Z,928.12
2017-03-17T05:32:47.972Z,928.11
2017-03-17T05:33:16.237Z,928.1
2017-03-17T05:33:44.408Z,928.11
2017-03-17T05:34:12.459Z,928.08
2017-03-17T05:34:40.725Z,928.13
2017-03-17T05:35:08.933Z,928.13
2017-03-17T05:35:37.061Z,928.11
2017-03-17T05:36:05.189Z,928.11
2017-03-17T05:36:33.464Z,928.12
2017-03-17T05:37:01.660Z,928.1
2017-03-17T05:37:29.675Z,928.12
2017-03-17T05:37:57.799Z,928.11
2017-03-17T05:38:25.958Z,928.13
2017-03-17T05:38:54.158Z,928.12
2017-03-17T05:39:22.371Z,928.15
2017-03-17T05:39:50.646Z,928.13
2017-03-17T05:40:18.849Z,928.14
2017-03-17T05:40:47.042Z,928.14
2017-03-17T05:41:15.320Z,928.15
2017-03-17T05:41:43.537Z,928.13
2017-03-17T05:42:11.706Z,928.13
2017-03-17T05:42:39.817Z,928.13
2017-03-17T05:43:07.873Z,928.11
2017-03-17T05:43:36.138Z,928.12
2017-03-17T05:44:04.384Z,928.15
2017-03-17T05:44:32.602Z,928.13
2017-03-17T05:45:00.718Z,928.14
2017-03-17T05:45:28.658Z,928.15
2017-03-17T05:45:56.772Z,928.14
2017-03-17T05:46:24.981Z,928.17
2017-03-17T05:46:53.452Z,928.17
2017-03-17T05:47:21.728Z,928.15
2017-03-17T05:47:49.781Z,928.14
2017-03-17T05:48:17.972Z,928.16
2017-03-17T05:48:46.020Z,928.16
2017-03-17T05:49:14.264Z,928.15
2017-03-17T05:49:42.386Z,928.12
2017-03-17T05:50:10.539Z,928.14
2017-03-17T05:50:38.828Z,928.12
2017-03-17T05:51:06.930Z,928.11
2017-03-17T05:51:34.973Z,928.1
2017-03-17T05:52:03.378Z,928.08
2017-03-17T05:52:31.584Z,928.08
2017-03-17T05:52:59.602Z,928.07
2017-03-17T05:53:27.840Z,928.06
2017-03-17T05:53:55.969Z,928.09